Weather History for Emmonak, AK

Change the Weather History Date:

Monday, December 31, 2012

  Actual Average Record
Temperature  
Mean Temperature 26 °F -  
Max Temperature 32 °F 8 °F 33 °F (2004)
Min Temperature 21 °F 0 °F -34 °F (2011)
Degree Days  
Heating Degree Days 38    
Moisture  
Dew Point 24 °F    
Average Humidity 85    
Maximum Humidity 93    
Minimum Humidity 80    
Precipitation  
Precipitation 0.00 in - - ()
Sea Level Pressure  
Sea Level Pressure 29.25 in    
Wind  
Wind Speed 13 mph (East)    
Max Wind Speed 23 mph    
Max Gust Speed 43 mph    
Visibility 9 miles    
Events      
Averages and records for this station are not official NWS values.
T = Trace of Precipitation, MM = Missing Value Source: NWS Daily Summary

Daily Weather History Graph

Daily Weather History Graph

Search for Another Location

Airport:

Trip Planner

Search our weather history database for the weather conditions in past years. The results will help you decide how hot, cold, wet, or windy it might be!

Date:

Astronomy

Dec. 31, 2012 Rise Set
Actual Time 11:30 AM AKST 4:32 PM AKST
Civil Twilight 10:22 AM AKST 5:40 PM AKST
Nautical Twilight 9:18 AM AKST 6:44 PM AKST
Astronomical Twilight 8:22 AM AKST 7:40 PM AKST
Moon 9:45 PM AKST (12/31) 11:55 AM AKST (12/31)
Length of Visible Light 7h 18m
Length of Day
5h 01m
Waning Gibbous, 89% of the Moon is Illuminated
Dec 31
Waning Gibbous
Jan 4
Last Quarter
Jan 11
New
Jan 18
First Quarter
Jan 26
Full

Hourly Weather History & Observations

Time (AKST) Temp. Windchill Dew Point Humidity Pressure Visibility Wind Dir Wind Speed Gust Speed Precip Events Conditions
12:16 AM 26.6 °F 14.7 °F 21.2 °F 80% 28.97 in 10.0 mi NNE 15.0 mph - N/A   Overcast
12:36 AM 26.6 °F 13.8 °F 21.2 °F 80% 28.97 in 10.0 mi NNE 17.3 mph - N/A   Overcast
12:56 AM 26.6 °F 15.2 °F 21.2 °F 80% 28.98 in 10.0 mi NNE 13.8 mph 21.9 mph N/A   Overcast
1:16 AM 26.6 °F 14.3 °F 21.2 °F 80% 28.99 in 10.0 mi NNE 16.1 mph - N/A   Overcast
1:36 AM 26.6 °F 14.3 °F 21.2 °F 80% 29.00 in 10.0 mi NNE 16.1 mph - N/A   Overcast
1:56 AM 26.6 °F 15.2 °F 21.2 °F 80% 29.00 in 10.0 mi NE 13.8 mph 20.7 mph N/A   Overcast
2:16 AM 26.6 °F 16.2 °F 21.2 °F 80% 29.02 in 4.0 mi NE 11.5 mph - N/A   Overcast
2:36 AM 26.6 °F 15.7 °F 21.2 °F 80% 29.02 in 9.0 mi NNE 12.7 mph - N/A   Overcast
2:56 AM 26.6 °F 15.7 °F 21.2 °F 80% 29.03 in 3.0 mi NNE 12.7 mph - N/A   Overcast
3:16 AM 26.6 °F 15.2 °F 23.0 °F 86% 29.03 in 2.5 mi NE 13.8 mph - N/A   Overcast
3:36 AM 26.6 °F 16.2 °F 23.0 °F 86% 29.04 in 5.0 mi NE 11.5 mph - N/A   Overcast
3:56 AM 26.6 °F 16.2 °F 24.8 °F 93% 29.05 in 3.0 mi NE 11.5 mph - N/A   Overcast
4:16 AM 26.6 °F 15.7 °F 24.8 °F 93% 29.05 in 3.0 mi NE 12.7 mph - N/A   Overcast
4:36 AM 28.4 °F 19.1 °F 24.8 °F 86% 29.06 in 4.0 mi NE 10.4 mph - N/A   Overcast
4:56 AM 28.4 °F 18.5 °F 24.8 °F 86% 29.06 in 7.0 mi NE 11.5 mph - N/A   Overcast
5:16 AM 28.4 °F 18.5 °F 26.6 °F 93% 29.07 in 10.0 mi NE 11.5 mph - N/A   Overcast
5:36 AM 28.4 °F 19.1 °F 26.6 °F 93% 29.07 in 10.0 mi ENE 10.4 mph - N/A   Overcast
5:56 AM 30.2 °F 21.9 °F 26.6 °F 86% 29.08 in 10.0 mi ENE 9.2 mph - N/A   Overcast
6:16 AM 28.4 °F 19.7 °F 26.6 °F 93% 29.10 in 10.0 mi ENE 9.2 mph - N/A   Overcast
6:36 AM 28.4 °F 23.3 °F 26.6 °F 93% 29.11 in 9.0 mi East 4.6 mph 42.6 mph N/A   Mostly Cloudy
6:56 AM 28.4 °F 22.2 °F 26.6 °F 93% 29.12 in 10.0 mi East 5.8 mph - N/A   Overcast
7:16 AM 28.4 °F 21.2 °F 26.6 °F 93% 29.13 in 7.0 mi East 6.9 mph - N/A   Overcast
7:36 AM 28.4 °F 19.7 °F 26.6 °F 93% 29.14 in 10.0 mi East 9.2 mph - N/A   Overcast
7:56 AM 30.2 °F 21.3 °F 26.6 °F 86% 29.15 in 10.0 mi East 10.4 mph - N/A   Overcast
8:16 AM 30.2 °F 21.3 °F 26.6 °F 86% 29.16 in 9.0 mi ESE 10.4 mph - N/A   Overcast
8:36 AM 30.2 °F 20.8 °F 26.6 °F 86% 29.18 in 10.0 mi ESE 11.5 mph - N/A   Overcast
8:56 AM 30.2 °F 20.2 °F 28.4 °F 93% 29.19 in 6.0 mi SE 12.7 mph - N/A   Overcast
9:16 AM 32.0 °F 22.1 °F 28.4 °F 87% 29.20 in 5.0 mi SE 13.8 mph - N/A   Overcast
9:36 AM 32.0 °F 21.6 °F 30.2 °F 93% 29.22 in 5.0 mi SSE 15.0 mph - N/A   Overcast
9:56 AM 32.0 °F 20.1 °F 28.4 °F 87% 29.23 in 5.0 mi SSE 19.6 mph - N/A   Overcast
10:16 AM 30.2 °F 16.8 °F 28.4 °F 93% 29.24 in 4.0 mi SSE 23.0 mph 28.8 mph N/A   Overcast
10:36 AM 30.2 °F 18.1 °F 26.6 °F 86% 29.26 in 10.0 mi SSE 18.4 mph - N/A   Overcast
10:56 AM 28.4 °F 15.8 °F 24.8 °F 86% 29.28 in 10.0 mi SSE 18.4 mph 26.5 mph N/A   Mostly Cloudy
11:16 AM 28.4 °F 17.5 °F 24.8 °F 86% 29.30 in 10.0 mi SSE 13.8 mph - N/A   Mostly Cloudy
11:36 AM 28.4 °F 15.1 °F 24.8 °F 86% 29.31 in 10.0 mi SSE 20.7 mph - N/A   Overcast
11:56 AM 28.4 °F 17.0 °F 24.8 °F 86% 29.33 in 8.0 mi SSE 15.0 mph 24.2 mph N/A   Overcast
12:16 PM 28.4 °F 17.0 °F 26.6 °F 93% 29.33 in 10.0 mi SE 15.0 mph 21.9 mph N/A   Overcast
12:36 PM 30.2 °F 18.5 °F 26.6 °F 86% 29.34 in 10.0 mi SE 17.3 mph - N/A   Overcast
12:56 PM 30.2 °F 18.9 °F 26.6 °F 86% 29.34 in 10.0 mi SE 16.1 mph 21.9 mph N/A   Overcast
1:16 PM 30.2 °F 18.1 °F 26.6 °F 86% 29.34 in 10.0 mi SE 18.4 mph - N/A   Overcast
1:36 PM 30.2 °F 18.1 °F 24.8 °F 80% 29.35 in 10.0 mi SSE 18.4 mph 23.0 mph N/A   Overcast
1:56 PM 30.2 °F 17.1 °F 24.8 °F 80% 29.36 in 10.0 mi SE 21.9 mph - N/A   Overcast
2:16 PM 30.2 °F 17.8 °F 26.6 °F 86% 29.37 in 10.0 mi SE 19.6 mph - N/A   Overcast
2:36 PM 30.2 °F 19.3 °F 24.8 °F 80% 29.38 in 10.0 mi SE 15.0 mph - N/A   Overcast
2:56 PM 30.2 °F 19.8 °F 24.8 °F 80% 29.38 in 10.0 mi SE 13.8 mph - N/A   Overcast
3:16 PM 30.2 °F 20.2 °F 24.8 °F 80% 29.39 in 10.0 mi SE 12.7 mph - N/A   Mostly Cloudy
3:36 PM 30.2 °F 21.9 °F 24.8 °F 80% 29.39 in 10.0 mi ESE 9.2 mph - N/A   Overcast
4:16 PM 30.2 °F 21.9 °F 24.8 °F 80% 29.41 in 10.0 mi East 9.2 mph - N/A   Overcast
4:36 PM 30.2 °F 21.9 °F 24.8 °F 80% 29.41 in 10.0 mi East 9.2 mph - N/A   Overcast
4:56 PM 30.2 °F 24.3 °F 24.8 °F 80% 29.41 in 10.0 mi East 5.8 mph - N/A   Overcast
5:16 PM 30.2 °F 21.9 °F 24.8 °F 80% 29.41 in 10.0 mi East 9.2 mph - N/A   Overcast
5:36 PM 30.2 °F 25.4 °F 24.8 °F 80% 29.42 in 10.0 mi East 4.6 mph - N/A   Overcast
5:56 PM 30.2 °F 24.3 °F 24.8 °F 80% 29.42 in 10.0 mi East 5.8 mph - N/A   Overcast
6:16 PM 30.2 °F 24.3 °F 24.8 °F 80% 29.42 in 10.0 mi East 5.8 mph - N/A   Overcast
6:36 PM 30.2 °F 22.6 °F 24.8 °F 80% 29.42 in 10.0 mi East 8.1 mph - N/A   Overcast
6:56 PM 30.2 °F 24.3 °F 24.8 °F 80% 29.42 in 10.0 mi East 5.8 mph - N/A   Overcast
7:16 PM 26.6 °F 19.1 °F 21.2 °F 80% 29.42 in 10.0 mi ENE 6.9 mph - N/A   Mostly Cloudy
7:36 PM 24.8 °F 14.6 °F 19.4 °F 80% 29.42 in 10.0 mi ENE 10.4 mph - N/A   Clear
7:56 PM 24.8 °F 14.0 °F 19.4 °F 80% 29.41 in 10.0 mi ENE 11.5 mph - N/A   Clear
8:16 PM 23.0 °F 13.1 °F 19.4 °F 86% 29.41 in 10.0 mi ENE 9.2 mph - N/A   Clear
8:36 PM 23.0 °F 12.4 °F 19.4 °F 86% 29.41 in 10.0 mi ENE 10.4 mph - N/A   Clear
8:56 PM 23.0 °F 12.4 °F 19.4 °F 86% 29.41 in 10.0 mi ENE 10.4 mph - N/A   Clear
9:16 PM 23.0 °F 13.1 °F 19.4 °F 86% 29.41 in 10.0 mi NE 9.2 mph - N/A   Clear
9:36 PM 21.2 °F 10.1 °F 17.6 °F 86% 29.40 in 10.0 mi NE 10.4 mph - N/A   Clear
9:56 PM 21.2 °F 11.7 °F 17.6 °F 86% 29.40 in 10.0 mi NNE 8.1 mph - N/A   Clear
10:16 PM 21.2 °F 10.1 °F 17.6 °F 86% 29.39 in 10.0 mi NE 10.4 mph - N/A   Clear
10:36 PM 23.0 °F 13.1 °F 17.6 °F 80% 29.39 in 10.0 mi NNE 9.2 mph - N/A   Clear
10:56 PM 21.2 °F 10.1 °F 17.6 °F 86% 29.38 in 10.0 mi NNE 10.4 mph - N/A   Scattered Clouds
11:16 PM 23.0 °F 12.4 °F 19.4 °F 86% 29.37 in 10.0 mi NNE 10.4 mph - N/A   Overcast
11:36 PM 24.8 °F 13.4 °F 21.2 °F 86% 29.37 in 10.0 mi NE 12.7 mph - N/A   Overcast
11:56 PM 26.6 °F 16.8 °F 21.2 °F 80% 29.36 in 10.0 mi NE 10.4 mph - N/A   Overcast